SKSP

Details ICAO SKSP (ADZ)
Name Gustavo Rojas Pinilla Intl
Region Colombia
Timezone Unknown
Plans Departing 464
Arriving 598
Stats Elevation 19 ft / 6 m (AMSL)
Location 12.583700° -81.711100°
Runways 1
Magnetic Variation 4.235° W
Sunrise 2021-12-04 11:35:56 UTC / 2021-12-04 11:35:56 Local
Sunset 2021-12-04 23:01:21 UTC / 2021-12-04 23:01:21 Local
Advertisement - Login to hide

Runways

ID Width Length Bearing (true/mag) Surface Threshold Overrun Markings Lighting
06 148 ft / 45 m 7,799 ft / 2,377 m 59.54° / 63.78° ASPHALT 0 ft / 0 m 394 ft / 120 m PREC-APP EDGE THRESHOLD REIL-OMNI
24 148 ft / 45 m 7,799 ft / 2,377 m 239.55° / 243.78° ASPHALT 0 ft / 0 m 194 ft / 59 m PREC-APP EDGE THRESHOLD REIL-OMNI

Map

Weather


0- 5 10 15 20 25 30 35+ Temperature / °C

Clouds and Precipitation
Forecast for 2021-12-04 18:00 UTC. Updated 5 hours ago

Ground ~20,000 ft ~40,000 ft Winds

METAR

SKSP 042000Z 07012KT 9999 FEW018 BKN200 30/24 Q1010 RMK A2984

TAF

TAF SKSP 041630Z 0418/0518 07014KT 9999 FEW017 BKN090 PROB40 TEMPO 0419/0421 8000 SHRA SCT015TCU PROB40 TEMPO 0508/0512 7000 DZRA SCT015 TX30/0418Z TN26/0510Z

Frequencies

Tower 118.10 MHz San Andres Tower
Recorded 127.80 MHz AWOS
Recorded 113.30 MHz ATIS
Warning: Do not use this data for real-world aviation or navigation. No guarantee of current accuracy is given.